Time;durP1;ratioP1;P1;durP2;ratioP2;P2;SDS_P1;SDS_P2;PMS_P1;PMS_P2;Temp;Humidity;BMP_temperature;BMP_pressure;BME280_temperature;BME280_humidity;BME280_pressure;Samples;Min_cycle;Max_cycle;Signal;HPM_P1;HPM_P2
2021/10/22 00:00:56;;;;;;;7.80;2.80;;;;;;;;;;2088678;28;20171;-51
2021/10/22 00:01:56;;;;;;;4.93;3.10;;;;;;;;;;2089835;28;20215;-51
2021/10/22 00:02:57;;;;;;;8.77;2.67;;;;;;;;;;2087636;28;20610;-50
2021/10/22 00:03:57;;;;;;;12.53;3.33;;;;;;;;;;2090245;28;20171;-56
2021/10/22 00:04:57;;;;;;;8.83;3.43;;;;;;;;;;2089401;28;20179;-57
2021/10/22 00:05:58;;;;;;;3.90;2.90;;;;;;;;;;2088937;28;20590;-51
2021/10/22 00:06:59;;;;;;;6.07;2.77;;;;;;;;;;2088139;28;20266;-53
2021/10/22 00:08:00;;;;;;;7.67;3.23;;;;;;;;;;2090102;28;20199;-55
2021/10/22 00:09:00;;;;;;;25.47;4.03;;;;;;;;;;2089330;28;20602;-54
2021/10/22 00:10:01;;;;;;;10.43;3.27;;;;;;;;;;2089460;28;20188;-52
2021/10/22 00:11:01;;;;;;;8.77;3.47;;;;;;;;;;2089689;28;20167;-51
2021/10/22 00:12:01;;;;;;;7.23;2.83;;;;;;;;;;2081247;28;20243;-54
2021/10/22 00:13:01;;;;;;;7.50;3.27;;;;;;;;;;2080589;28;20203;-54
2021/10/22 00:14:01;;;;;;;5.73;2.67;;;;;;;;;;2087756;28;20581;-55
2021/10/22 00:15:02;;;;;;;6.37;3.20;;;;;;;;;;2088652;28;20184;-53
2021/10/22 00:16:03;;;;;;;6.10;3.20;;;;;;;;;;2087492;28;20672;-51
2021/10/22 00:17:04;;;;;;;6.33;3.00;;;;;;;;;;2080531;28;20179;-51
2021/10/22 00:18:04;;;;;;;7.50;3.47;;;;;;;;;;2081204;28;20210;-55
2021/10/22 00:19:04;;;;;;;8.37;3.00;;;;;;;;;;2089389;28;20180;-53
2021/10/22 00:20:07;;;;;;;6.03;3.00;;;;;;;;;;2089366;28;20590;-51
2021/10/22 00:21:07;;;;;;;7.37;3.07;;;;;;;;;;2089591;28;20186;-52
2021/10/22 00:22:07;;;;;;;5.90;2.90;;;;;;;;;;2089870;28;20187;-49
2021/10/22 00:23:07;;;;;;;5.83;2.97;;;;;;;;;;2091162;28;20287;-54
2021/10/22 00:24:08;;;;;;;8.43;3.50;;;;;;;;;;2091693;28;20257;-50
2021/10/22 00:25:08;;;;;;;7.83;2.50;;;;;;;;;;2089057;28;20194;-53
2021/10/22 00:26:09;;;;;;;9.17;3.13;;;;;;;;;;2089405;28;20223;-52
2021/10/22 00:27:11;;;;;;;8.17;2.73;;;;;;;;;;2086864;28;20607;-50
2021/10/22 00:28:13;;;;;;;11.63;3.23;;;;;;;;;;2090060;28;20253;-52
2021/10/22 00:29:14;;;;;;;8.10;3.53;;;;;;;;;;2089511;28;20690;-52
2021/10/22 00:30:15;;;;;;;10.67;3.60;;;;;;;;;;2088950;28;20191;-54
2021/10/22 00:31:15;;;;;;;9.23;3.37;;;;;;;;;;2089270;28;20549;-53
2021/10/22 00:32:15;;;;;;;9.60;3.00;;;;;;;;;;2089259;28;20189;-53
2021/10/22 00:33:15;;;;;;;5.67;3.13;;;;;;;;;;2089462;28;20176;-50
2021/10/22 00:34:16;;;;;;;10.60;3.50;;;;;;;;;;2088469;28;20630;-54
2021/10/22 00:35:16;;;;;;;8.63;3.13;;;;;;;;;;2079831;28;20633;-51
2021/10/22 00:36:17;;;;;;;5.20;2.73;;;;;;;;;;2072199;28;20192;-53
2021/10/22 00:37:18;;;;;;;12.70;3.67;;;;;;;;;;2080395;28;20175;-52
2021/10/22 00:38:18;;;;;;;11.00;3.77;;;;;;;;;;2088206;28;20172;-51
2021/10/22 00:39:18;;;;;;;6.53;2.77;;;;;;;;;;2089613;28;20175;-51
2021/10/22 00:40:19;;;;;;;7.47;3.20;;;;;;;;;;2088300;28;20640;-52
2021/10/22 00:41:19;;;;;;;9.57;3.70;;;;;;;;;;2088794;28;20237;-55
2021/10/22 00:42:21;;;;;;;6.73;3.00;;;;;;;;;;2088936;28;20176;-51
2021/10/22 00:43:21;;;;;;;11.63;3.77;;;;;;;;;;2086225;28;20176;-52
2021/10/22 00:44:21;;;;;;;7.93;2.93;;;;;;;;;;2089068;28;20190;-55
2021/10/22 00:45:22;;;;;;;10.47;3.93;;;;;;;;;;2088622;28;20350;-56
2021/10/22 00:46:25;;;;;;;10.53;3.47;;;;;;;;;;2089090;28;20206;-52
2021/10/22 00:47:25;;;;;;;8.17;3.27;;;;;;;;;;2088669;28;20168;-50
2021/10/22 00:48:26;;;;;;;6.00;2.67;;;;;;;;;;2089252;28;20542;-52
2021/10/22 00:49:26;;;;;;;7.23;3.10;;;;;;;;;;2088749;28;20168;-50
2021/10/22 00:50:27;;;;;;;9.20;3.77;;;;;;;;;;2088769;28;20199;-52
2021/10/22 00:51:28;;;;;;;11.77;3.30;;;;;;;;;;2079914;28;20807;-52
2021/10/22 00:52:28;;;;;;;11.37;3.60;;;;;;;;;;2080888;28;20184;-54
2021/10/22 00:53:29;;;;;;;10.20;3.57;;;;;;;;;;2089298;28;21098;-50
2021/10/22 00:54:29;;;;;;;8.97;2.37;;;;;;;;;;2089066;28;20179;-50
2021/10/22 00:55:29;;;;;;;6.17;3.43;;;;;;;;;;2086565;28;20188;-50
2021/10/22 00:56:30;;;;;;;8.23;3.40;;;;;;;;;;2087384;28;20166;-51
2021/10/22 00:57:30;;;;;;;7.93;3.37;;;;;;;;;;2088959;28;20211;-54
2021/10/22 00:58:31;;;;;;;6.63;3.40;;;;;;;;;;2089854;28;20176;-51
2021/10/22 00:59:32;;;;;;;10.77;3.43;;;;;;;;;;2089563;28;20168;-49
2021/10/22 01:00:32;;;;;;;13.23;3.67;;;;;;;;;;2088897;28;20166;-49
2021/10/22 01:01:39;;;;;;;14.97;3.97;;;;;;;;;;2080185;28;20322;-55
2021/10/22 01:02:40;;;;;;;8.83;3.10;;;;;;;;;;2081252;28;20169;-50
2021/10/22 01:03:40;;;;;;;8.10;2.87;;;;;;;;;;2088545;28;20195;-51
2021/10/22 01:04:41;;;;;;;7.80;3.50;;;;;;;;;;2088419;28;20171;-55
2021/10/22 01:05:44;;;;;;;5.43;2.80;;;;;;;;;;2088729;28;20206;-53
2021/10/22 01:06:44;;;;;;;7.37;3.27;;;;;;;;;;2088132;28;20610;-49
2021/10/22 01:07:45;;;;;;;7.37;2.87;;;;;;;;;;2088119;28;20172;-50
2021/10/22 01:08:45;;;;;;;11.87;4.00;;;;;;;;;;2080110;28;20203;-54
2021/10/22 01:09:46;;;;;;;8.13;3.60;;;;;;;;;;2089229;28;20171;-55
2021/10/22 01:10:47;;;;;;;8.67;3.17;;;;;;;;;;2088420;28;20187;-53
2021/10/22 01:11:48;;;;;;;13.93;3.47;;;;;;;;;;2088300;28;20203;-53
2021/10/22 01:12:49;;;;;;;8.47;3.67;;;;;;;;;;2089092;28;20160;-52
2021/10/22 01:13:50;;;;;;;10.70;3.40;;;;;;;;;;2080674;28;20184;-55
2021/10/22 01:14:51;;;;;;;6.80;3.10;;;;;;;;;;2086916;28;20176;-51
2021/10/22 01:15:52;;;;;;;9.23;3.27;;;;;;;;;;2088995;28;20487;-54
2021/10/22 01:16:52;;;;;;;9.87;3.33;;;;;;;;;;2088673;28;20272;-53
2021/10/22 01:17:53;;;;;;;11.50;3.30;;;;;;;;;;2089054;28;20159;-53
2021/10/22 01:18:54;;;;;;;6.00;3.07;;;;;;;;;;2079876;28;20180;-55
2021/10/22 01:19:55;;;;;;;5.90;2.50;;;;;;;;;;2079840;28;20184;-53
2021/10/22 01:20:58;;;;;;;8.27;3.37;;;;;;;;;;2088254;28;20250;-56
2021/10/22 01:21:59;;;;;;;6.63;3.33;;;;;;;;;;2088640;28;20163;-56
2021/10/22 01:22:59;;;;;;;5.53;3.10;;;;;;;;;;2089085;28;20717;-51
2021/10/22 01:23:59;;;;;;;8.93;3.00;;;;;;;;;;2089108;28;20207;-49
2021/10/22 01:25:00;;;;;;;7.87;3.07;;;;;;;;;;2089226;28;20171;-52
2021/10/22 01:26:00;;;;;;;10.20;3.90;;;;;;;;;;2088445;28;20191;-51
2021/10/22 01:27:01;;;;;;;7.17;3.23;;;;;;;;;;2088623;28;20569;-51
2021/10/22 01:28:02;;;;;;;7.80;3.40;;;;;;;;;;2080107;28;20177;-50
2021/10/22 01:29:02;;;;;;;7.07;3.70;;;;;;;;;;2080150;28;20245;-55
2021/10/22 01:30:04;;;;;;;8.07;3.30;;;;;;;;;;2079846;28;22601;-51
2021/10/22 01:31:04;;;;;;;8.33;3.80;;;;;;;;;;2079955;28;20176;-51
2021/10/22 01:32:04;;;;;;;6.03;3.20;;;;;;;;;;2088389;28;20221;-49
2021/10/22 01:33:06;;;;;;;8.47;3.03;;;;;;;;;;2088375;28;20224;-51
2021/10/22 01:34:06;;;;;;;9.80;3.70;;;;;;;;;;2088626;28;20269;-51
2021/10/22 01:35:07;;;;;;;9.60;3.30;;;;;;;;;;2089541;28;20180;-51
2021/10/22 01:36:08;;;;;;;12.20;3.73;;;;;;;;;;2090366;28;20218;-51
2021/10/22 01:37:09;;;;;;;7.93;3.13;;;;;;;;;;2087807;28;20164;-53
2021/10/22 01:38:09;;;;;;;11.33;3.10;;;;;;;;;;2089420;28;20262;-54
2021/10/22 01:39:09;;;;;;;8.60;3.37;;;;;;;;;;2089902;28;20565;-51
2021/10/22 01:40:10;;;;;;;11.90;3.53;;;;;;;;;;2088759;28;20659;-50
2021/10/22 01:41:10;;;;;;;9.47;3.27;;;;;;;;;;2087134;28;20183;-52
2021/10/22 01:42:11;;;;;;;7.83;3.13;;;;;;;;;;2088293;28;20576;-49
2021/10/22 01:43:11;;;;;;;6.77;3.63;;;;;;;;;;2089376;28;20184;-50
2021/10/22 01:44:13;;;;;;;8.50;3.00;;;;;;;;;;2088932;28;20183;-54
2021/10/22 01:45:14;;;;;;;11.37;3.23;;;;;;;;;;2085884;28;20184;-52
2021/10/22 01:46:14;;;;;;;11.30;3.50;;;;;;;;;;2088823;28;20199;-50
2021/10/22 01:47:14;;;;;;;10.43;3.50;;;;;;;;;;2094446;28;20167;-54
2021/10/22 01:48:15;;;;;;;11.97;3.47;;;;;;;;;;2094677;28;20187;-56
2021/10/22 01:49:17;;;;;;;9.80;2.90;;;;;;;;;;2093729;28;20652;-55
2021/10/22 01:50:17;;;;;;;12.83;3.50;;;;;;;;;;2096480;28;20176;-57
2021/10/22 01:51:18;;;;;;;14.67;3.20;;;;;;;;;;2094240;28;20171;-54
2021/10/22 01:52:19;;;;;;;6.77;3.30;;;;;;;;;;2094730;28;20775;-54
2021/10/22 01:53:19;;;;;;;7.13;3.27;;;;;;;;;;2097805;28;20185;-54
2021/10/22 01:54:19;;;;;;;8.90;2.97;;;;;;;;;;2098034;28;20258;-53
2021/10/22 01:55:19;;;;;;;7.67;3.80;;;;;;;;;;2098362;28;20516;-56
2021/10/22 01:56:20;;;;;;;8.43;3.67;;;;;;;;;;2097531;28;20185;-53
2021/10/22 01:57:20;;;;;;;6.10;2.90;;;;;;;;;;2096654;28;20193;-54
2021/10/22 01:58:20;;;;;;;8.20;3.33;;;;;;;;;;2097533;28;20176;-53
2021/10/22 01:59:21;;;;;;;8.37;3.33;;;;;;;;;;2096852;28;20167;-53
2021/10/22 02:00:21;;;;;;;9.27;2.83;;;;;;;;;;2082513;28;20214;-51
2021/10/22 02:01:21;;;;;;;6.80;3.30;;;;;;;;;;2072178;28;20264;-51
2021/10/22 02:02:21;;;;;;;10.17;3.27;;;;;;;;;;2080679;28;20180;-49
2021/10/22 02:03:22;;;;;;;12.73;4.00;;;;;;;;;;2089478;28;20270;-50
2021/10/22 02:04:23;;;;;;;9.20;3.80;;;;;;;;;;2088856;28;20194;-54
2021/10/22 02:05:23;;;;;;;5.47;3.27;;;;;;;;;;2089646;28;20190;-51
2021/10/22 02:06:23;;;;;;;13.87;3.63;;;;;;;;;;2087530;28;20179;-50
2021/10/22 02:07:24;;;;;;;10.97;4.30;;;;;;;;;;2081403;28;20606;-53
2021/10/22 02:08:24;;;;;;;10.60;3.80;;;;;;;;;;2071351;28;20185;-51
2021/10/22 02:09:24;;;;;;;6.50;2.73;;;;;;;;;;2079432;28;20165;-54
2021/10/22 02:10:28;;;;;;;9.90;3.57;;;;;;;;;;2088877;28;20182;-49
2021/10/22 02:11:28;;;;;;;10.43;3.33;;;;;;;;;;2088208;28;20257;-50
2021/10/22 02:12:29;;;;;;;11.27;3.90;;;;;;;;;;2089203;28;20168;-54
2021/10/22 02:13:29;;;;;;;10.00;3.67;;;;;;;;;;2089743;28;20671;-54
2021/10/22 02:14:29;;;;;;;8.97;3.50;;;;;;;;;;2086655;28;20218;-51
2021/10/22 02:15:30;;;;;;;7.63;3.30;;;;;;;;;;2089476;28;20644;-51
2021/10/22 02:16:30;;;;;;;7.23;3.60;;;;;;;;;;2087189;28;20708;-50
2021/10/22 02:17:31;;;;;;;8.97;3.10;;;;;;;;;;2088803;28;20160;-51
2021/10/22 02:18:31;;;;;;;12.07;3.77;;;;;;;;;;2089329;28;20172;-55
2021/10/22 02:19:32;;;;;;;6.50;3.10;;;;;;;;;;2090417;28;20213;-53
2021/10/22 02:20:33;;;;;;;8.53;3.77;;;;;;;;;;2090572;28;20168;-51
2021/10/22 02:21:33;;;;;;;6.70;3.47;;;;;;;;;;2090863;28;20640;-51
2021/10/22 02:22:33;;;;;;;5.87;3.53;;;;;;;;;;2090879;28;20190;-51
2021/10/22 02:23:33;;;;;;;12.93;3.73;;;;;;;;;;2089247;28;20167;-55
2021/10/22 02:24:34;;;;;;;7.73;3.20;;;;;;;;;;2070401;28;20177;-56
2021/10/22 02:25:34;;;;;;;9.63;3.40;;;;;;;;;;2074530;28;20201;-55
2021/10/22 02:26:34;;;;;;;9.70;3.57;;;;;;;;;;2079996;28;20181;-58
2021/10/22 02:27:35;;;;;;;7.47;3.50;;;;;;;;;;2082563;28;20191;-50
2021/10/22 02:28:35;;;;;;;8.63;3.17;;;;;;;;;;2080556;28;20192;-50
2021/10/22 02:29:35;;;;;;;9.10;3.17;;;;;;;;;;2073167;28;20557;-51
2021/10/22 02:30:36;;;;;;;8.77;3.33;;;;;;;;;;2080567;28;20667;-52
2021/10/22 02:31:36;;;;;;;9.80;3.97;;;;;;;;;;2089314;28;20176;-55
2021/10/22 02:32:36;;;;;;;5.53;3.47;;;;;;;;;;2089866;28;20176;-54
2021/10/22 02:33:37;;;;;;;10.83;3.53;;;;;;;;;;2090154;28;20247;-53
2021/10/22 02:34:37;;;;;;;11.00;3.70;;;;;;;;;;2089437;28;20164;-54
2021/10/22 02:35:38;;;;;;;8.13;3.77;;;;;;;;;;2089965;28;20195;-51
2021/10/22 02:36:38;;;;;;;11.13;4.50;;;;;;;;;;2090750;28;20238;-51
2021/10/22 02:37:42;;;;;;;7.30;3.60;;;;;;;;;;2090132;28;20159;-54
2021/10/22 02:38:43;;;;;;;8.53;3.03;;;;;;;;;;2088022;28;20687;-55
2021/10/22 02:39:43;;;;;;;10.20;3.57;;;;;;;;;;2090251;28;20646;-53
2021/10/22 02:40:44;;;;;;;14.07;3.87;;;;;;;;;;2090117;28;20171;-52
2021/10/22 02:41:45;;;;;;;9.80;3.57;;;;;;;;;;2090241;28;20167;-51
2021/10/22 02:42:45;;;;;;;5.80;3.27;;;;;;;;;;2090220;28;20168;-50
2021/10/22 02:43:47;;;;;;;5.60;3.00;;;;;;;;;;2081011;28;20655;-49
2021/10/22 02:44:47;;;;;;;6.40;3.30;;;;;;;;;;2082006;28;20220;-51
2021/10/22 02:45:48;;;;;;;5.73;3.20;;;;;;;;;;2089811;28;20183;-50
2021/10/22 02:46:48;;;;;;;8.30;3.30;;;;;;;;;;2089758;28;20309;-50
2021/10/22 02:47:48;;;;;;;9.07;3.50;;;;;;;;;;2089846;28;20578;-51
2021/10/22 02:48:49;;;;;;;5.87;2.50;;;;;;;;;;2081511;28;20200;-50
2021/10/22 02:49:49;;;;;;;8.83;2.93;;;;;;;;;;2080836;28;20219;-51
2021/10/22 02:50:49;;;;;;;6.17;2.77;;;;;;;;;;2089806;28;20590;-54
2021/10/22 02:51:52;;;;;;;5.90;3.43;;;;;;;;;;2089334;28;20225;-52
2021/10/22 02:52:53;;;;;;;8.23;3.10;;;;;;;;;;2085247;28;20228;-54
2021/10/22 02:53:53;;;;;;;8.83;2.73;;;;;;;;;;2089782;28;20582;-54
2021/10/22 02:54:53;;;;;;;8.93;3.67;;;;;;;;;;2089911;28;20540;-54
2021/10/22 02:55:54;;;;;;;10.27;3.03;;;;;;;;;;2090219;28;20556;-54
2021/10/22 02:56:54;;;;;;;12.07;3.27;;;;;;;;;;2090248;28;20213;-51
2021/10/22 02:57:55;;;;;;;8.90;3.27;;;;;;;;;;2089853;28;20214;-53
2021/10/22 02:58:55;;;;;;;4.60;2.63;;;;;;;;;;2089457;28;20251;-52
2021/10/22 02:59:56;;;;;;;7.47;3.00;;;;;;;;;;2081187;28;20172;-54
2021/10/22 03:00:56;;;;;;;9.97;2.97;;;;;;;;;;2080530;28;20607;-54
2021/10/22 03:01:56;;;;;;;8.00;2.50;;;;;;;;;;2090410;28;20211;-53
2021/10/22 03:02:57;;;;;;;8.07;3.70;;;;;;;;;;2090101;28;20183;-51
2021/10/22 03:03:57;;;;;;;4.03;2.70;;;;;;;;;;2089577;28;20238;-52
2021/10/22 03:04:57;;;;;;;6.60;3.07;;;;;;;;;;2089887;28;20179;-56
2021/10/22 03:05:57;;;;;;;5.90;2.60;;;;;;;;;;2080794;28;20235;-50
2021/10/22 03:06:57;;;;;;;6.33;2.80;;;;;;;;;;2081276;28;20184;-53
2021/10/22 03:07:59;;;;;;;7.50;3.20;;;;;;;;;;2089596;28;21003;-51
2021/10/22 03:09:00;;;;;;;7.63;3.00;;;;;;;;;;2080435;28;20196;-54
2021/10/22 03:10:00;;;;;;;7.60;3.00;;;;;;;;;;2080737;28;20648;-53
2021/10/22 03:11:00;;;;;;;4.83;3.10;;;;;;;;;;2088239;28;20620;-56
2021/10/22 03:12:01;;;;;;;5.00;2.83;;;;;;;;;;2089550;28;20172;-52
2021/10/22 03:13:01;;;;;;;7.03;2.33;;;;;;;;;;2089360;28;20233;-51
2021/10/22 03:14:02;;;;;;;8.30;3.20;;;;;;;;;;2089674;28;20555;-52
2021/10/22 03:15:03;;;;;;;9.07;3.30;;;;;;;;;;2089953;28;20267;-53
2021/10/22 03:16:03;;;;;;;11.00;3.73;;;;;;;;;;2080822;28;20199;-54
2021/10/22 03:17:03;;;;;;;9.93;3.30;;;;;;;;;;2081047;28;20684;-52
2021/10/22 03:18:03;;;;;;;5.70;3.03;;;;;;;;;;2088809;28;20197;-56
2021/10/22 03:19:04;;;;;;;11.83;3.40;;;;;;;;;;2080658;28;20172;-52
2021/10/22 03:20:04;;;;;;;11.00;3.67;;;;;;;;;;2081509;28;20295;-51
2021/10/22 03:21:05;;;;;;;9.23;3.27;;;;;;;;;;2088244;28;20183;-52
2021/10/22 03:22:05;;;;;;;6.77;2.97;;;;;;;;;;2089462;28;20183;-53
2021/10/22 03:23:06;;;;;;;7.60;2.43;;;;;;;;;;2081055;28;20192;-53
2021/10/22 03:24:06;;;;;;;7.03;2.97;;;;;;;;;;2081201;28;20260;-54
2021/10/22 03:25:06;;;;;;;7.07;3.30;;;;;;;;;;2090149;28;20690;-50
2021/10/22 03:26:07;;;;;;;6.93;3.03;;;;;;;;;;2090261;28;20200;-51
2021/10/22 03:27:11;;;;;;;4.90;2.53;;;;;;;;;;2090221;28;20214;-54
2021/10/22 03:28:12;;;;;;;5.93;2.97;;;;;;;;;;2087257;28;20171;-52
2021/10/22 03:29:12;;;;;;;7.37;3.23;;;;;;;;;;2088332;28;20207;-56
2021/10/22 03:30:12;;;;;;;9.17;3.30;;;;;;;;;;2089239;28;20598;-55
2021/10/22 03:31:12;;;;;;;4.53;2.70;;;;;;;;;;2089303;28;20205;-53
2021/10/22 03:32:13;;;;;;;9.30;3.40;;;;;;;;;;2090139;28;20204;-52
2021/10/22 03:33:13;;;;;;;11.20;3.60;;;;;;;;;;2089696;28;20175;-52
2021/10/22 03:34:14;;;;;;;7.37;3.23;;;;;;;;;;2089172;28;20576;-53
2021/10/22 03:35:14;;;;;;;8.50;2.80;;;;;;;;;;2089427;28;20178;-56
2021/10/22 03:36:14;;;;;;;6.00;3.97;;;;;;;;;;2090020;28;20250;-55
2021/10/22 03:37:15;;;;;;;10.67;3.63;;;;;;;;;;2090098;28;20171;-53
2021/10/22 03:38:15;;;;;;;6.60;3.37;;;;;;;;;;2090124;28;20203;-53
2021/10/22 03:39:16;;;;;;;9.40;3.50;;;;;;;;;;2090080;28;20262;-51
2021/10/22 03:40:16;;;;;;;8.87;3.43;;;;;;;;;;2088504;28;20227;-57
2021/10/22 03:41:17;;;;;;;7.30;3.60;;;;;;;;;;2087802;28;20183;-53
2021/10/22 03:42:17;;;;;;;7.10;2.77;;;;;;;;;;2090009;28;20202;-52
2021/10/22 03:43:17;;;;;;;8.70;3.50;;;;;;;;;;2091320;28;20179;-49
2021/10/22 03:44:17;;;;;;;9.03;3.00;;;;;;;;;;2090425;28;20176;-51
2021/10/22 03:45:17;;;;;;;7.30;3.03;;;;;;;;;;2089732;28;20568;-52
2021/10/22 03:46:18;;;;;;;7.10;3.37;;;;;;;;;;2089200;28;20571;-54
2021/10/22 03:47:19;;;;;;;5.87;3.40;;;;;;;;;;2090114;28;20188;-54
2021/10/22 03:48:19;;;;;;;10.07;2.90;;;;;;;;;;2089742;28;20179;-52
2021/10/22 03:49:20;;;;;;;4.17;2.63;;;;;;;;;;2085692;28;20245;-53
2021/10/22 03:50:21;;;;;;;6.33;3.30;;;;;;;;;;2085327;28;20226;-52
2021/10/22 03:51:21;;;;;;;11.97;3.30;;;;;;;;;;2089646;28;20180;-54
2021/10/22 03:52:22;;;;;;;6.07;3.03;;;;;;;;;;2089176;28;20199;-52
2021/10/22 03:53:22;;;;;;;6.53;3.30;;;;;;;;;;2088969;28;20249;-53
2021/10/22 03:54:22;;;;;;;7.10;2.90;;;;;;;;;;2085837;28;20179;-51
2021/10/22 03:55:22;;;;;;;4.37;2.97;;;;;;;;;;2088737;28;20206;-51
2021/10/22 03:56:24;;;;;;;7.63;3.00;;;;;;;;;;2096584;22;20235;-63
2021/10/22 03:57:24;;;;;;;8.10;3.30;;;;;;;;;;2088633;28;20199;-63
2021/10/22 03:58:24;;;;;;;8.60;3.50;;;;;;;;;;2087883;28;20172;-62
2021/10/22 03:59:24;;;;;;;8.70;3.33;;;;;;;;;;2089255;28;20175;-63
2021/10/22 04:00:25;;;;;;;8.63;3.50;;;;;;;;;;2089028;28;20175;-64
2021/10/22 04:01:25;;;;;;;5.47;3.07;;;;;;;;;;2089430;28;20656;-62
2021/10/22 04:02:25;;;;;;;7.03;3.47;;;;;;;;;;2089991;28;20188;-63
2021/10/22 04:03:25;;;;;;;7.83;3.40;;;;;;;;;;2089928;28;20171;-63
2021/10/22 04:04:29;;;;;;;6.47;2.83;;;;;;;;;;2090231;28;20176;-62
2021/10/22 04:05:29;;;;;;;6.00;2.57;;;;;;;;;;2088994;28;20184;-62
2021/10/22 04:06:29;;;;;;;3.97;2.80;;;;;;;;;;2088700;28;20353;-62
2021/10/22 04:07:30;;;;;;;8.53;3.80;;;;;;;;;;2089822;28;20254;-55
2021/10/22 04:08:30;;;;;;;8.83;3.50;;;;;;;;;;2089008;28;20671;-62
2021/10/22 04:09:32;;;;;;;7.83;3.67;;;;;;;;;;2095726;28;20190;-64
2021/10/22 04:10:32;;;;;;;3.80;2.13;;;;;;;;;;2090963;28;20195;-64
2021/10/22 04:11:32;;;;;;;6.73;2.73;;;;;;;;;;2087629;28;20160;-63
2021/10/22 04:12:33;;;;;;;3.50;2.73;;;;;;;;;;2090705;28;20184;-62
2021/10/22 04:13:33;;;;;;;6.97;3.03;;;;;;;;;;2096039;28;20198;-63
2021/10/22 04:14:33;;;;;;;10.03;3.60;;;;;;;;;;2085218;28;20210;-63
2021/10/22 04:15:35;;;;;;;8.90;2.90;;;;;;;;;;2091135;28;20636;-63
2021/10/22 04:16:35;;;;;;;6.07;3.00;;;;;;;;;;2098761;28;20205;-64
2021/10/22 04:17:35;;;;;;;7.73;2.97;;;;;;;;;;2091369;28;20254;-63
2021/10/22 04:18:36;;;;;;;6.63;2.80;;;;;;;;;;2090807;28;20648;-64
2021/10/22 04:19:37;;;;;;;7.10;2.67;;;;;;;;;;2090515;28;20595;-63
2021/10/22 04:20:37;;;;;;;7.67;3.60;;;;;;;;;;2090362;28;20267;-64
2021/10/22 04:21:37;;;;;;;7.27;3.17;;;;;;;;;;2090905;28;20244;-64
2021/10/22 04:22:38;;;;;;;5.57;3.33;;;;;;;;;;2090665;28;20187;-65
2021/10/22 04:23:38;;;;;;;4.90;3.00;;;;;;;;;;2085044;28;20199;-65
2021/10/22 04:24:38;;;;;;;8.57;3.40;;;;;;;;;;2093950;28;20180;-66
2021/10/22 04:25:39;;;;;;;5.60;3.27;;;;;;;;;;2096339;28;20699;-64
2021/10/22 04:26:39;;;;;;;3.60;2.63;;;;;;;;;;2094862;28;20718;-69
2021/10/22 04:27:39;;;;;;;6.47;3.20;;;;;;;;;;2102857;28;20202;-65
2021/10/22 04:28:40;;;;;;;12.23;3.50;;;;;;;;;;2099099;28;20195;-64
2021/10/22 04:29:40;;;;;;;12.27;3.33;;;;;;;;;;2094314;28;20237;-64
2021/10/22 04:30:40;;;;;;;10.10;3.53;;;;;;;;;;2093243;28;20198;-64
2021/10/22 04:31:41;;;;;;;8.77;3.43;;;;;;;;;;2091214;28;20171;-64
2021/10/22 04:32:41;;;;;;;7.27;3.30;;;;;;;;;;2091094;28;20172;-62
2021/10/22 04:33:41;;;;;;;5.53;3.03;;;;;;;;;;2081725;28;20207;-63
2021/10/22 04:34:42;;;;;;;9.00;3.23;;;;;;;;;;2097843;28;20328;-64
2021/10/22 04:35:42;;;;;;;8.13;2.90;;;;;;;;;;2092146;28;20203;-64
2021/10/22 04:36:43;;;;;;;6.40;3.53;;;;;;;;;;2099635;28;20185;-65
2021/10/22 04:37:50;;;;;;;8.37;2.97;;;;;;;;;;2101172;28;20174;-63
2021/10/22 04:41:29;;;;;;;7.87;3.77;;;;;;;;;;2091921;28;20167;-63
2021/10/22 04:42:29;;;;;;;4.37;3.07;;;;;;;;;;2093827;28;20182;-65
2021/10/22 04:43:29;;;;;;;12.40;3.77;;;;;;;;;;2091584;28;20184;-61
2021/10/22 04:44:30;;;;;;;5.13;3.23;;;;;;;;;;2100777;28;20179;-64
2021/10/22 04:45:32;;;;;;;7.23;3.63;;;;;;;;;;2091489;28;20218;-62
2021/10/22 04:46:32;;;;;;;6.97;3.60;;;;;;;;;;2095081;28;20702;-63
2021/10/22 04:47:33;;;;;;;6.00;2.87;;;;;;;;;;2089662;28;20332;-65
2021/10/22 04:48:33;;;;;;;7.40;3.00;;;;;;;;;;2086830;28;20179;-64
2021/10/22 04:49:34;;;;;;;6.60;3.07;;;;;;;;;;2088770;28;20562;-66
2021/10/22 04:50:39;;;;;;;9.73;4.20;;;;;;;;;;2080736;28;20168;-64
2021/10/22 04:51:40;;;;;;;5.53;3.10;;;;;;;;;;2088659;28;20350;-63
2021/10/22 04:52:40;;;;;;;6.03;3.00;;;;;;;;;;2089403;28;20628;-64
2021/10/22 04:53:40;;;;;;;10.13;3.03;;;;;;;;;;2085853;28;20235;-63
2021/10/22 04:54:40;;;;;;;7.57;3.37;;;;;;;;;;2089470;28;20171;-65
2021/10/22 04:55:41;;;;;;;11.50;3.83;;;;;;;;;;2096405;28;20171;-65
2021/10/22 04:56:41;;;;;;;5.50;3.50;;;;;;;;;;2077714;28;20196;-61
2021/10/22 04:57:42;;;;;;;5.97;3.50;;;;;;;;;;2095468;28;20162;-64
2021/10/22 04:58:45;;;;;;;7.00;3.23;;;;;;;;;;2089709;28;20241;-60
2021/10/22 04:59:45;;;;;;;7.40;3.53;;;;;;;;;;2098060;28;20182;-63
2021/10/22 05:00:46;;;;;;;7.20;3.20;;;;;;;;;;2082734;28;20165;-62
2021/10/22 05:01:46;;;;;;;10.13;3.20;;;;;;;;;;2089506;28;20223;-65
2021/10/22 05:02:47;;;;;;;7.43;3.00;;;;;;;;;;2080868;28;20207;-64
2021/10/22 05:03:47;;;;;;;7.10;3.23;;;;;;;;;;2088768;28;20651;-62
2021/10/22 05:04:48;;;;;;;7.23;3.00;;;;;;;;;;2086304;28;20244;-63
2021/10/22 05:05:48;;;;;;;8.77;3.53;;;;;;;;;;2086648;28;20175;-60
2021/10/22 05:06:48;;;;;;;7.20;3.53;;;;;;;;;;2097753;28;20571;-59
2021/10/22 05:07:48;;;;;;;10.47;4.00;;;;;;;;;;2089246;28;20202;-63
2021/10/22 05:08:49;;;;;;;6.43;3.47;;;;;;;;;;2093259;28;20168;-62
2021/10/22 05:09:49;;;;;;;10.00;3.27;;;;;;;;;;2087101;28;20190;-63
2021/10/22 05:10:49;;;;;;;7.87;3.30;;;;;;;;;;2079575;28;20188;-63
2021/10/22 05:11:49;;;;;;;4.32;2.92;;;;;;;;;;2086727;28;20205;-63
2021/10/22 05:12:50;;;;;;;12.20;2.70;;;;;;;;;;2089312;28;20164;-63
2021/10/22 05:13:50;;;;;;;5.60;3.03;;;;;;;;;;2088449;28;20209;-60
2021/10/22 05:14:50;;;;;;;9.80;3.75;;;;;;;;;;2088545;28;20702;-63
2021/10/22 05:15:51;;;;;;;14.40;3.70;;;;;;;;;;2089068;28;20163;-62
2021/10/22 05:16:51;;;;;;;7.10;3.37;;;;;;;;;;2086151;28;20773;-62
2021/10/22 05:17:51;;;;;;;6.37;3.50;;;;;;;;;;2086007;28;20180;-66
2021/10/22 05:18:52;;;;;;;7.00;3.63;;;;;;;;;;2089444;28;20203;-60
2021/10/22 05:19:53;;;;;;;7.60;3.03;;;;;;;;;;2088957;28;20175;-60
2021/10/22 05:20:53;;;;;;;4.30;2.93;;;;;;;;;;2087344;28;20262;-59
2021/10/22 05:21:54;;;;;;;5.87;2.97;;;;;;;;;;2088917;28;20171;-62
2021/10/22 05:22:54;;;;;;;9.10;3.77;;;;;;;;;;2088532;28;20187;-57
2021/10/22 05:23:54;;;;;;;5.10;3.37;;;;;;;;;;2089373;28;20184;-60
2021/10/22 05:24:55;;;;;;;7.50;4.20;;;;;;;;;;2096335;28;20254;-60
2021/10/22 05:25:55;;;;;;;9.30;3.40;;;;;;;;;;2089606;28;20178;-61
2021/10/22 05:26:55;;;;;;;6.30;3.30;;;;;;;;;;2098116;28;20312;-61
2021/10/22 05:27:56;;;;;;;9.07;3.57;;;;;;;;;;2097053;28;20314;-64
2021/10/22 05:28:56;;;;;;;14.07;3.57;;;;;;;;;;2095541;28;20210;-61
2021/10/22 05:29:56;;;;;;;5.10;3.17;;;;;;;;;;2088498;28;20202;-59
2021/10/22 05:30:56;;;;;;;6.33;3.43;;;;;;;;;;2089088;28;20546;-60
2021/10/22 05:31:57;;;;;;;6.53;3.57;;;;;;;;;;2095583;28;20769;-62
2021/10/22 05:32:57;;;;;;;9.67;3.43;;;;;;;;;;2088417;28;20217;-61
2021/10/22 05:33:57;;;;;;;5.07;3.20;;;;;;;;;;2087494;28;20206;-59
2021/10/22 05:34:57;;;;;;;10.13;3.83;;;;;;;;;;2079964;28;20302;-61
2021/10/22 05:35:58;;;;;;;7.83;2.90;;;;;;;;;;2095199;28;20677;-58
2021/10/22 05:36:58;;;;;;;12.63;4.27;;;;;;;;;;2091148;28;20192;-58
2021/10/22 05:37:58;;;;;;;11.00;3.53;;;;;;;;;;2096526;28;20647;-57
2021/10/22 05:38:59;;;;;;;13.20;4.37;;;;;;;;;;2094216;28;20203;-58
2021/10/22 05:39:59;;;;;;;7.60;3.10;;;;;;;;;;2095018;28;20735;-61
2021/10/22 05:41:00;;;;;;;9.07;3.33;;;;;;;;;;2084525;28;20177;-60
2021/10/22 05:42:00;;;;;;;5.63;3.07;;;;;;;;;;2087968;28;20195;-60
2021/10/22 05:43:00;;;;;;;10.27;4.00;;;;;;;;;;2089246;28;20241;-57
2021/10/22 05:44:00;;;;;;;5.30;3.60;;;;;;;;;;2088588;28;20198;-58
2021/10/22 05:45:01;;;;;;;7.47;4.00;;;;;;;;;;2088076;28;20186;-57
2021/10/22 05:46:01;;;;;;;7.00;3.60;;;;;;;;;;2085830;28;20563;-56
2021/10/22 05:47:02;;;;;;;5.33;3.00;;;;;;;;;;2087266;28;20710;-60
2021/10/22 05:48:02;;;;;;;10.63;4.10;;;;;;;;;;2088323;28;20179;-62
2021/10/22 05:49:02;;;;;;;7.43;3.40;;;;;;;;;;2087610;28;20302;-59
2021/10/22 05:50:04;;;;;;;5.63;3.27;;;;;;;;;;2088610;28;20230;-57
2021/10/22 05:51:04;;;;;;;12.00;3.83;;;;;;;;;;2085942;28;20179;-58
2021/10/22 05:52:04;;;;;;;10.30;3.80;;;;;;;;;;2088116;28;20598;-59
2021/10/22 05:53:05;;;;;;;4.70;3.03;;;;;;;;;;2089086;28;20666;-60
2021/10/22 05:54:05;;;;;;;9.23;3.63;;;;;;;;;;2090631;28;20184;-60
2021/10/22 05:55:05;;;;;;;6.10;3.67;;;;;;;;;;2094544;28;20163;-60
2021/10/22 05:56:07;;;;;;;11.80;4.23;;;;;;;;;;2083995;28;20180;-59
2021/10/22 05:57:07;;;;;;;9.27;3.53;;;;;;;;;;2088569;28;20179;-54
2021/10/22 05:58:08;;;;;;;9.67;3.80;;;;;;;;;;2089081;28;20282;-59
2021/10/22 05:59:08;;;;;;;6.10;3.60;;;;;;;;;;2087617;28;20211;-61
2021/10/22 06:00:09;;;;;;;8.37;4.00;;;;;;;;;;2097041;28;20722;-61
2021/10/22 06:01:12;;;;;;;5.20;3.23;;;;;;;;;;2105673;28;20193;-60
2021/10/22 06:02:12;;;;;;;12.80;4.40;;;;;;;;;;2083989;28;20246;-60
2021/10/22 06:03:13;;;;;;;6.27;3.27;;;;;;;;;;2076385;28;20195;-60
2021/10/22 06:04:14;;;;;;;8.30;3.73;;;;;;;;;;2084958;28;20206;-61
2021/10/22 06:05:14;;;;;;;5.63;3.27;;;;;;;;;;2089336;28;20179;-62